CheckWX is a tool to help pilots better visualize weather data.  It is not intended as a substitute for an official pre-flight weather briefing.

12:11:54 UTC

PFNO METAR
Robert / Bob / Curtis Memorial Airport
Noorvik, Alaska, USA
Current

16 mins ago

PFNO 261156Z AUTO 06009KT 9SM CLR 11/07 A3008 RMK AO2 SLP186 T01060067 10194 20106 50002
Observed
Jun-26 @ 11:56 UTC
Wind
  • 060° at 9 KTS
Visibility
9 SM
Flight Rules
VFR
Cloud Levels
  • Clear skies
Temperature
11°C / 52°F
Dewpoint
C / 45°F
Humidity
77%
Altimeter
30.08" Hg
Pressure
1018.62 hPa
Previous

1 hour ago

PFNO 261056Z AUTO 05007KT 10SM CLR 12/08 A3008 RMK AO2 SLP187 T01170078
Observed
Jun-26 @ 10:56 UTC
Wind
  • 050° at 7 KTS
Visibility
10 SM
Flight Rules
VFR
Cloud Levels
  • Clear skies
Temperature
12°C / 54°F
Dewpoint
C / 46°F
Humidity
77%
Altimeter
30.08" Hg
Pressure
1018.62 hPa
Previous

2 hours ago

PFNO 260956Z AUTO 07006KT 10SM CLR 14/09 A3008 RMK AO2 SLP185 T01390094
Observed
Jun-26 @ 09:56 UTC
Wind
  • 070° at 6 KTS
Visibility
10 SM
Flight Rules
VFR
Cloud Levels
  • Clear skies
Temperature
14°C / 57°F
Dewpoint
C / 48°F
Humidity
72%
Altimeter
30.08" Hg
Pressure
1018.62 hPa